sensor_id;sensor_type;location;lat;lon;timestamp;P1;durP1;ratioP1;P2;durP2;ratioP2
40449;SDS011;41787;53.570;10.032;2022-12-29T00:01:33;3.33;;;2.70;;
40449;SDS011;41787;53.570;10.032;2022-12-29T00:03:59;4.00;;;2.72;;
40449;SDS011;41787;53.570;10.032;2022-12-29T00:06:25;3.22;;;2.75;;
40449;SDS011;41787;53.570;10.032;2022-12-29T00:08:51;4.55;;;3.08;;
40449;SDS011;41787;53.570;10.032;2022-12-29T00:11:18;3.22;;;2.72;;
40449;SDS011;41787;53.570;10.032;2022-12-29T00:13:45;4.15;;;2.92;;
40449;SDS011;41787;53.570;10.032;2022-12-29T00:16:30;4.25;;;2.97;;
40449;SDS011;41787;53.570;10.032;2022-12-29T00:18:56;3.47;;;2.90;;
40449;SDS011;41787;53.570;10.032;2022-12-29T00:21:23;4.63;;;3.35;;
40449;SDS011;41787;53.570;10.032;2022-12-29T00:24:26;5.60;;;3.28;;
40449;SDS011;41787;53.570;10.032;2022-12-29T00:27:03;3.85;;;3.03;;
40449;SDS011;41787;53.570;10.032;2022-12-29T00:29:53;4.05;;;3.05;;
40449;SDS011;41787;53.570;10.032;2022-12-29T00:32:37;5.22;;;3.00;;
40449;SDS011;41787;53.570;10.032;2022-12-29T00:35:27;5.57;;;3.45;;
40449;SDS011;41787;53.570;10.032;2022-12-29T00:37:53;4.55;;;3.60;;
40449;SDS011;41787;53.570;10.032;2022-12-29T00:40:40;3.78;;;3.35;;
40449;SDS011;41787;53.570;10.032;2022-12-29T00:43:24;8.02;;;3.45;;
40449;SDS011;41787;53.570;10.032;2022-12-29T00:46:09;4.43;;;3.28;;
40449;SDS011;41787;53.570;10.032;2022-12-29T00:48:35;3.58;;;3.22;;
40449;SDS011;41787;53.570;10.032;2022-12-29T00:51:19;3.85;;;2.90;;
40449;SDS011;41787;53.570;10.032;2022-12-29T00:53:45;6.40;;;3.35;;
40449;SDS011;41787;53.570;10.032;2022-12-29T00:56:11;3.55;;;2.78;;
40449;SDS011;41787;53.570;10.032;2022-12-29T00:58:37;4.38;;;3.08;;
40449;SDS011;41787;53.570;10.032;2022-12-29T01:01:04;3.85;;;3.33;;
40449;SDS011;41787;53.570;10.032;2022-12-29T01:03:33;5.47;;;3.22;;
40449;SDS011;41787;53.570;10.032;2022-12-29T01:05:59;4.00;;;3.20;;
40449;SDS011;41787;53.570;10.032;2022-12-29T01:08:27;3.30;;;2.85;;
40449;SDS011;41787;53.570;10.032;2022-12-29T01:10:59;3.80;;;2.85;;
40449;SDS011;41787;53.570;10.032;2022-12-29T01:13:26;3.83;;;2.97;;
40449;SDS011;41787;53.570;10.032;2022-12-29T01:15:52;4.63;;;3.22;;
40449;SDS011;41787;53.570;10.032;2022-12-29T01:18:18;5.60;;;3.60;;
40449;SDS011;41787;53.570;10.032;2022-12-29T01:20:44;5.55;;;3.10;;
40449;SDS011;41787;53.570;10.032;2022-12-29T01:23:10;5.38;;;3.03;;
40449;SDS011;41787;53.570;10.032;2022-12-29T01:25:36;3.70;;;2.90;;
40449;SDS011;41787;53.570;10.032;2022-12-29T01:28:01;3.33;;;3.00;;
40449;SDS011;41787;53.570;10.032;2022-12-29T01:30:27;3.92;;;3.20;;
40449;SDS011;41787;53.570;10.032;2022-12-29T01:32:53;4.75;;;3.40;;
40449;SDS011;41787;53.570;10.032;2022-12-29T01:35:19;4.07;;;2.67;;
40449;SDS011;41787;53.570;10.032;2022-12-29T01:37:45;4.53;;;3.22;;
40449;SDS011;41787;53.570;10.032;2022-12-29T01:40:11;4.30;;;3.20;;
40449;SDS011;41787;53.570;10.032;2022-12-29T01:42:37;4.50;;;3.22;;
40449;SDS011;41787;53.570;10.032;2022-12-29T01:45:13;4.45;;;3.47;;
40449;SDS011;41787;53.570;10.032;2022-12-29T01:50:16;5.15;;;3.53;;
40449;SDS011;41787;53.570;10.032;2022-12-29T01:52:44;2.95;;;2.67;;
40449;SDS011;41787;53.570;10.032;2022-12-29T01:57:40;5.68;;;3.45;;
40449;SDS011;41787;53.570;10.032;2022-12-29T02:00:09;6.00;;;4.05;;
40449;SDS011;41787;53.570;10.032;2022-12-29T02:02:35;4.47;;;3.80;;
40449;SDS011;41787;53.570;10.032;2022-12-29T02:05:09;3.90;;;3.53;;
40449;SDS011;41787;53.570;10.032;2022-12-29T02:07:36;11.05;;;4.40;;
40449;SDS011;41787;53.570;10.032;2022-12-29T02:10:03;7.88;;;4.45;;
40449;SDS011;41787;53.570;10.032;2022-12-29T02:12:29;5.30;;;4.57;;
40449;SDS011;41787;53.570;10.032;2022-12-29T02:14:55;7.18;;;4.32;;
40449;SDS011;41787;53.570;10.032;2022-12-29T02:35:37;8.85;;;4.82;;
40449;SDS011;41787;53.570;10.032;2022-12-29T02:38:31;12.13;;;5.38;;
40449;SDS011;41787;53.570;10.032;2022-12-29T02:40:53;7.35;;;4.38;;
40449;SDS011;41787;53.570;10.032;2022-12-29T02:43:26;10.63;;;5.55;;
40449;SDS011;41787;53.570;10.032;2022-12-29T02:45:55;6.68;;;4.43;;
40449;SDS011;41787;53.570;10.032;2022-12-29T02:53:26;7.28;;;4.90;;
40449;SDS011;41787;53.570;10.032;2022-12-29T02:56:13;11.93;;;5.20;;
40449;SDS011;41787;53.570;10.032;2022-12-29T02:58:39;6.78;;;4.50;;
40449;SDS011;41787;53.570;10.032;2022-12-29T03:04:02;8.60;;;5.13;;
40449;SDS011;41787;53.570;10.032;2022-12-29T03:06:35;6.00;;;4.40;;
40449;SDS011;41787;53.570;10.032;2022-12-29T03:09:10;5.38;;;3.72;;
40449;SDS011;41787;53.570;10.032;2022-12-29T03:11:40;8.23;;;4.38;;
40449;SDS011;41787;53.570;10.032;2022-12-29T03:14:37;6.07;;;3.90;;
40449;SDS011;41787;53.570;10.032;2022-12-29T03:17:25;8.15;;;3.70;;
40449;SDS011;41787;53.570;10.032;2022-12-29T03:19:52;7.45;;;3.92;;
40449;SDS011;41787;53.570;10.032;2022-12-29T03:22:24;5.32;;;3.67;;
40449;SDS011;41787;53.570;10.032;2022-12-29T03:25:00;4.70;;;3.40;;
40449;SDS011;41787;53.570;10.032;2022-12-29T03:27:28;5.35;;;3.53;;
40449;SDS011;41787;53.570;10.032;2022-12-29T03:29:56;5.85;;;3.47;;
40449;SDS011;41787;53.570;10.032;2022-12-29T03:32:23;5.22;;;3.67;;
40449;SDS011;41787;53.570;10.032;2022-12-29T03:34:50;4.50;;;3.35;;
40449;SDS011;41787;53.570;10.032;2022-12-29T03:37:17;4.70;;;3.40;;
40449;SDS011;41787;53.570;10.032;2022-12-29T03:39:44;5.00;;;4.25;;
40449;SDS011;41787;53.570;10.032;2022-12-29T03:42:11;3.88;;;3.10;;
40449;SDS011;41787;53.570;10.032;2022-12-29T03:44:40;4.82;;;3.17;;
40449;SDS011;41787;53.570;10.032;2022-12-29T03:47:06;4.10;;;2.78;;
40449;SDS011;41787;53.570;10.032;2022-12-29T03:49:33;4.47;;;3.33;;
40449;SDS011;41787;53.570;10.032;2022-12-29T03:51:59;4.75;;;2.85;;
40449;SDS011;41787;53.570;10.032;2022-12-29T03:54:25;3.33;;;2.70;;
40449;SDS011;41787;53.570;10.032;2022-12-29T03:56:51;8.20;;;2.92;;
40449;SDS011;41787;53.570;10.032;2022-12-29T03:59:17;5.15;;;2.72;;
40449;SDS011;41787;53.570;10.032;2022-12-29T04:01:43;4.75;;;2.60;;
40449;SDS011;41787;53.570;10.032;2022-12-29T04:04:09;2.95;;;2.65;;
40449;SDS011;41787;53.570;10.032;2022-12-29T04:06:35;4.38;;;2.80;;
40449;SDS011;41787;53.570;10.032;2022-12-29T04:09:01;3.30;;;3.00;;
40449;SDS011;41787;53.570;10.032;2022-12-29T04:11:27;2.83;;;2.42;;
40449;SDS011;41787;53.570;10.032;2022-12-29T04:13:53;5.43;;;2.63;;
40449;SDS011;41787;53.570;10.032;2022-12-29T04:16:19;4.57;;;2.80;;
40449;SDS011;41787;53.570;10.032;2022-12-29T04:18:45;4.55;;;2.38;;
40449;SDS011;41787;53.570;10.032;2022-12-29T04:21:10;6.45;;;3.00;;
40449;SDS011;41787;53.570;10.032;2022-12-29T04:23:37;4.70;;;2.67;;
40449;SDS011;41787;53.570;10.032;2022-12-29T04:26:03;3.80;;;2.55;;
40449;SDS011;41787;53.570;10.032;2022-12-29T04:28:31;8.50;;;2.67;;
40449;SDS011;41787;53.570;10.032;2022-12-29T04:30:57;4.65;;;2.58;;
40449;SDS011;41787;53.570;10.032;2022-12-29T04:33:23;3.45;;;2.60;;
40449;SDS011;41787;53.570;10.032;2022-12-29T04:35:50;4.10;;;2.50;;
40449;SDS011;41787;53.570;10.032;2022-12-29T04:38:18;4.97;;;2.50;;
40449;SDS011;41787;53.570;10.032;2022-12-29T04:40:44;6.60;;;2.83;;
40449;SDS011;41787;53.570;10.032;2022-12-29T04:43:11;5.43;;;3.00;;
40449;SDS011;41787;53.570;10.032;2022-12-29T04:45:37;4.75;;;2.60;;
40449;SDS011;41787;53.570;10.032;2022-12-29T04:48:03;3.67;;;2.35;;
40449;SDS011;41787;53.570;10.032;2022-12-29T04:50:29;3.60;;;2.17;;
40449;SDS011;41787;53.570;10.032;2022-12-29T04:52:54;4.63;;;2.40;;
40449;SDS011;41787;53.570;10.032;2022-12-29T04:55:21;3.58;;;2.38;;
40449;SDS011;41787;53.570;10.032;2022-12-29T04:57:47;3.35;;;2.55;;
40449;SDS011;41787;53.570;10.032;2022-12-29T05:00:13;4.10;;;2.80;;
40449;SDS011;41787;53.570;10.032;2022-12-29T05:02:39;5.07;;;2.42;;
40449;SDS011;41787;53.570;10.032;2022-12-29T05:05:05;4.63;;;2.22;;
40449;SDS011;41787;53.570;10.032;2022-12-29T05:07:31;3.97;;;2.75;;
40449;SDS011;41787;53.570;10.032;2022-12-29T05:09:58;4.40;;;2.63;;
40449;SDS011;41787;53.570;10.032;2022-12-29T05:12:24;4.65;;;2.60;;
40449;SDS011;41787;53.570;10.032;2022-12-29T05:14:50;4.30;;;2.40;;
40449;SDS011;41787;53.570;10.032;2022-12-29T05:17:16;3.92;;;2.45;;
40449;SDS011;41787;53.570;10.032;2022-12-29T05:19:42;3.33;;;1.77;;
40449;SDS011;41787;53.570;10.032;2022-12-29T05:22:08;2.65;;;1.70;;
40449;SDS011;41787;53.570;10.032;2022-12-29T05:24:33;3.42;;;1.60;;
40449;SDS011;41787;53.570;10.032;2022-12-29T05:26:59;2.25;;;1.40;;
40449;SDS011;41787;53.570;10.032;2022-12-29T05:29:25;1.50;;;1.40;;
40449;SDS011;41787;53.570;10.032;2022-12-29T05:31:51;1.90;;;1.67;;
40449;SDS011;41787;53.570;10.032;2022-12-29T05:34:17;1.83;;;1.48;;
40449;SDS011;41787;53.570;10.032;2022-12-29T05:36:43;3.28;;;1.70;;
40449;SDS011;41787;53.570;10.032;2022-12-29T05:39:09;1.95;;;1.55;;
40449;SDS011;41787;53.570;10.032;2022-12-29T05:41:35;1.67;;;1.58;;
40449;SDS011;41787;53.570;10.032;2022-12-29T05:44:01;2.50;;;1.83;;
40449;SDS011;41787;53.570;10.032;2022-12-29T05:46:27;3.33;;;1.50;;
40449;SDS011;41787;53.570;10.032;2022-12-29T05:48:53;2.65;;;1.50;;
40449;SDS011;41787;53.570;10.032;2022-12-29T05:51:19;3.42;;;1.50;;
40449;SDS011;41787;53.570;10.032;2022-12-29T05:53:45;2.00;;;1.50;;
40449;SDS011;41787;53.570;10.032;2022-12-29T05:56:11;1.50;;;1.40;;
40449;SDS011;41787;53.570;10.032;2022-12-29T05:58:37;8.35;;;1.30;;
40449;SDS011;41787;53.570;10.032;2022-12-29T06:01:03;2.20;;;1.50;;
40449;SDS011;41787;53.570;10.032;2022-12-29T06:03:29;1.45;;;1.20;;
40449;SDS011;41787;53.570;10.032;2022-12-29T06:05:55;4.65;;;1.27;;
40449;SDS011;41787;53.570;10.032;2022-12-29T06:08:21;2.28;;;0.90;;
40449;SDS011;41787;53.570;10.032;2022-12-29T06:10:47;2.25;;;0.88;;
40449;SDS011;41787;53.570;10.032;2022-12-29T06:13:13;1.80;;;1.45;;
40449;SDS011;41787;53.570;10.032;2022-12-29T06:15:39;0.82;;;0.80;;
40449;SDS011;41787;53.570;10.032;2022-12-29T06:18:05;1.40;;;1.00;;
40449;SDS011;41787;53.570;10.032;2022-12-29T06:20:31;1.70;;;0.93;;
40449;SDS011;41787;53.570;10.032;2022-12-29T06:22:57;0.98;;;0.80;;
40449;SDS011;41787;53.570;10.032;2022-12-29T06:25:22;1.02;;;0.90;;
40449;SDS011;41787;53.570;10.032;2022-12-29T06:27:48;1.10;;;0.90;;
40449;SDS011;41787;53.570;10.032;2022-12-29T06:30:14;0.75;;;0.75;;
40449;SDS011;41787;53.570;10.032;2022-12-29T06:32:41;1.45;;;0.85;;
40449;SDS011;41787;53.570;10.032;2022-12-29T06:35:08;2.88;;;2.60;;
40449;SDS011;41787;53.570;10.032;2022-12-29T06:37:34;2.75;;;1.00;;
40449;SDS011;41787;53.570;10.032;2022-12-29T06:40:00;1.60;;;0.95;;
40449;SDS011;41787;53.570;10.032;2022-12-29T06:42:27;1.23;;;0.93;;
40449;SDS011;41787;53.570;10.032;2022-12-29T06:44:53;1.20;;;0.85;;
40449;SDS011;41787;53.570;10.032;2022-12-29T06:47:19;3.25;;;1.25;;
40449;SDS011;41787;53.570;10.032;2022-12-29T06:49:44;1.33;;;0.90;;
40449;SDS011;41787;53.570;10.032;2022-12-29T06:52:11;4.07;;;1.10;;
40449;SDS011;41787;53.570;10.032;2022-12-29T06:54:37;2.88;;;1.45;;
40449;SDS011;41787;53.570;10.032;2022-12-29T06:57:03;3.30;;;1.48;;
40449;SDS011;41787;53.570;10.032;2022-12-29T06:59:29;2.78;;;1.00;;
40449;SDS011;41787;53.570;10.032;2022-12-29T07:01:55;4.45;;;1.10;;
40449;SDS011;41787;53.570;10.032;2022-12-29T07:04:21;2.50;;;1.17;;
40449;SDS011;41787;53.570;10.032;2022-12-29T07:06:47;1.23;;;1.00;;
40449;SDS011;41787;53.570;10.032;2022-12-29T07:09:13;1.02;;;1.00;;
40449;SDS011;41787;53.570;10.032;2022-12-29T07:11:39;1.17;;;0.70;;
40449;SDS011;41787;53.570;10.032;2022-12-29T07:14:05;1.23;;;0.90;;
40449;SDS011;41787;53.570;10.032;2022-12-29T07:16:31;2.40;;;1.17;;
40449;SDS011;41787;53.570;10.032;2022-12-29T07:18:59;3.17;;;1.20;;
40449;SDS011;41787;53.570;10.032;2022-12-29T07:21:25;0.90;;;0.90;;
40449;SDS011;41787;53.570;10.032;2022-12-29T07:23:51;5.15;;;1.52;;
40449;SDS011;41787;53.570;10.032;2022-12-29T07:26:16;3.03;;;1.45;;
40449;SDS011;41787;53.570;10.032;2022-12-29T07:28:43;2.35;;;1.70;;
40449;SDS011;41787;53.570;10.032;2022-12-29T07:31:13;3.53;;;1.60;;
40449;SDS011;41787;53.570;10.032;2022-12-29T07:33:40;3.72;;;1.40;;
40449;SDS011;41787;53.570;10.032;2022-12-29T07:36:06;2.13;;;1.60;;
40449;SDS011;41787;53.570;10.032;2022-12-29T07:38:32;2.97;;;1.23;;
40449;SDS011;41787;53.570;10.032;2022-12-29T07:40:58;1.98;;;1.63;;
40449;SDS011;41787;53.570;10.032;2022-12-29T07:43:24;4.05;;;1.48;;
40449;SDS011;41787;53.570;10.032;2022-12-29T07:45:50;3.15;;;1.75;;
40449;SDS011;41787;53.570;10.032;2022-12-29T07:48:16;3.33;;;1.42;;
40449;SDS011;41787;53.570;10.032;2022-12-29T07:50:42;3.00;;;1.75;;
40449;SDS011;41787;53.570;10.032;2022-12-29T07:53:08;3.45;;;1.50;;
40449;SDS011;41787;53.570;10.032;2022-12-29T07:55:34;5.68;;;1.67;;
40449;SDS011;41787;53.570;10.032;2022-12-29T07:58:00;3.72;;;1.50;;
40449;SDS011;41787;53.570;10.032;2022-12-29T08:00:26;4.05;;;1.38;;
40449;SDS011;41787;53.570;10.032;2022-12-29T08:02:52;2.42;;;1.58;;
40449;SDS011;41787;53.570;10.032;2022-12-29T08:05:18;3.65;;;1.30;;
40449;SDS011;41787;53.570;10.032;2022-12-29T08:07:44;3.38;;;1.45;;
40449;SDS011;41787;53.570;10.032;2022-12-29T08:10:11;4.30;;;1.30;;
40449;SDS011;41787;53.570;10.032;2022-12-29T08:12:37;2.30;;;1.02;;
40449;SDS011;41787;53.570;10.032;2022-12-29T08:15:04;2.47;;;1.20;;
40449;SDS011;41787;53.570;10.032;2022-12-29T08:17:30;1.10;;;0.77;;
40449;SDS011;41787;53.570;10.032;2022-12-29T08:19:56;2.38;;;0.98;;
40449;SDS011;41787;53.570;10.032;2022-12-29T08:22:22;2.33;;;0.98;;
40449;SDS011;41787;53.570;10.032;2022-12-29T08:24:48;2.03;;;0.85;;
40449;SDS011;41787;53.570;10.032;2022-12-29T08:27:14;4.40;;;1.15;;
40449;SDS011;41787;53.570;10.032;2022-12-29T08:29:40;1.98;;;0.90;;
40449;SDS011;41787;53.570;10.032;2022-12-29T08:32:06;1.50;;;0.98;;
40449;SDS011;41787;53.570;10.032;2022-12-29T08:34:32;3.28;;;1.40;;
40449;SDS011;41787;53.570;10.032;2022-12-29T08:36:58;4.30;;;1.02;;
40449;SDS011;41787;53.570;10.032;2022-12-29T08:39:24;3.80;;;1.08;;
40449;SDS011;41787;53.570;10.032;2022-12-29T08:41:50;1.38;;;0.90;;
40449;SDS011;41787;53.570;10.032;2022-12-29T08:44:16;2.90;;;1.15;;
40449;SDS011;41787;53.570;10.032;2022-12-29T08:46:42;6.72;;;1.75;;
40449;SDS011;41787;53.570;10.032;2022-12-29T08:49:08;2.95;;;1.10;;
40449;SDS011;41787;53.570;10.032;2022-12-29T08:51:34;2.20;;;0.93;;
40449;SDS011;41787;53.570;10.032;2022-12-29T08:54:00;2.65;;;1.20;;
40449;SDS011;41787;53.570;10.032;2022-12-29T08:56:26;3.45;;;1.33;;
40449;SDS011;41787;53.570;10.032;2022-12-29T08:58:53;3.67;;;0.70;;
40449;SDS011;41787;53.570;10.032;2022-12-29T09:01:19;2.83;;;1.00;;
40449;SDS011;41787;53.570;10.032;2022-12-29T09:03:45;2.17;;;1.00;;
40449;SDS011;41787;53.570;10.032;2022-12-29T09:06:11;5.22;;;0.90;;
40449;SDS011;41787;53.570;10.032;2022-12-29T09:08:37;2.50;;;0.88;;
40449;SDS011;41787;53.570;10.032;2022-12-29T09:11:11;3.78;;;1.35;;
40449;SDS011;41787;53.570;10.032;2022-12-29T09:13:37;2.53;;;0.85;;
40449;SDS011;41787;53.570;10.032;2022-12-29T09:16:03;2.47;;;0.90;;
40449;SDS011;41787;53.570;10.032;2022-12-29T09:18:29;2.92;;;0.57;;
40449;SDS011;41787;53.570;10.032;2022-12-29T09:20:56;5.75;;;1.17;;
40449;SDS011;41787;53.570;10.032;2022-12-29T09:23:25;2.53;;;0.88;;
40449;SDS011;41787;53.570;10.032;2022-12-29T09:25:51;4.30;;;1.13;;
40449;SDS011;41787;53.570;10.032;2022-12-29T09:28:20;2.53;;;0.95;;
40449;SDS011;41787;53.570;10.032;2022-12-29T09:30:46;2.20;;;0.60;;
40449;SDS011;41787;53.570;10.032;2022-12-29T09:33:12;3.17;;;1.10;;
40449;SDS011;41787;53.570;10.032;2022-12-29T09:35:42;1.55;;;0.50;;
40449;SDS011;41787;53.570;10.032;2022-12-29T09:38:08;3.35;;;0.73;;
40449;SDS011;41787;53.570;10.032;2022-12-29T09:40:34;3.15;;;0.68;;
40449;SDS011;41787;53.570;10.032;2022-12-29T09:43:04;5.72;;;0.95;;
40449;SDS011;41787;53.570;10.032;2022-12-29T09:45:41;6.60;;;1.10;;
40449;SDS011;41787;53.570;10.032;2022-12-29T09:48:11;5.68;;;1.13;;
40449;SDS011;41787;53.570;10.032;2022-12-29T09:50:39;5.03;;;0.93;;
40449;SDS011;41787;53.570;10.032;2022-12-29T09:58:04;2.60;;;0.80;;
40449;SDS011;41787;53.570;10.032;2022-12-29T10:03:11;4.40;;;1.10;;
40449;SDS011;41787;53.570;10.032;2022-12-29T10:05:46;4.20;;;1.25;;
40449;SDS011;41787;53.570;10.032;2022-12-29T10:13:25;1.73;;;0.70;;
40449;SDS011;41787;53.570;10.032;2022-12-29T10:18:37;4.72;;;1.05;;
40449;SDS011;41787;53.570;10.032;2022-12-29T10:21:07;10.05;;;1.42;;
40449;SDS011;41787;53.570;10.032;2022-12-29T10:23:35;3.80;;;0.60;;
40449;SDS011;41787;53.570;10.032;2022-12-29T10:26:04;7.35;;;1.63;;
40449;SDS011;41787;53.570;10.032;2022-12-29T10:28:42;2.67;;;0.73;;
40449;SDS011;41787;53.570;10.032;2022-12-29T10:31:11;5.72;;;0.70;;
40449;SDS011;41787;53.570;10.032;2022-12-29T10:33:40;5.15;;;1.15;;
40449;SDS011;41787;53.570;10.032;2022-12-29T10:36:14;3.70;;;1.58;;
40449;SDS011;41787;53.570;10.032;2022-12-29T10:41:13;5.95;;;1.02;;
40449;SDS011;41787;53.570;10.032;2022-12-29T10:46:12;7.87;;;1.30;;
40449;SDS011;41787;53.570;10.032;2022-12-29T10:48:38;3.72;;;1.20;;
40449;SDS011;41787;53.570;10.032;2022-12-29T10:51:05;6.75;;;1.00;;
40449;SDS011;41787;53.570;10.032;2022-12-29T10:58:53;6.05;;;1.33;;
40449;SDS011;41787;53.570;10.032;2022-12-29T11:01:20;3.47;;;1.15;;
40449;SDS011;41787;53.570;10.032;2022-12-29T11:06:31;6.22;;;1.08;;
40449;SDS011;41787;53.570;10.032;2022-12-29T11:09:08;9.32;;;1.30;;
40449;SDS011;41787;53.570;10.032;2022-12-29T11:11:35;7.82;;;1.67;;
40449;SDS011;41787;53.570;10.032;2022-12-29T11:14:07;6.18;;;1.98;;
40449;SDS011;41787;53.570;10.032;2022-12-29T11:16:36;6.55;;;1.73;;
40449;SDS011;41787;53.570;10.032;2022-12-29T11:19:02;5.95;;;1.58;;
40449;SDS011;41787;53.570;10.032;2022-12-29T11:21:36;4.13;;;1.35;;
40449;SDS011;41787;53.570;10.032;2022-12-29T11:26:52;3.75;;;1.50;;
40449;SDS011;41787;53.570;10.032;2022-12-29T11:29:23;5.60;;;1.20;;
40449;SDS011;41787;53.570;10.032;2022-12-29T11:31:50;6.55;;;2.10;;
40449;SDS011;41787;53.570;10.032;2022-12-29T11:34:23;8.75;;;1.05;;
40449;SDS011;41787;53.570;10.032;2022-12-29T11:36:58;4.00;;;0.82;;
40449;SDS011;41787;53.570;10.032;2022-12-29T11:39:29;3.85;;;0.77;;
40449;SDS011;41787;53.570;10.032;2022-12-29T11:41:56;3.15;;;0.70;;
40449;SDS011;41787;53.570;10.032;2022-12-29T11:44:22;3.72;;;1.00;;
40449;SDS011;41787;53.570;10.032;2022-12-29T11:46:50;4.15;;;0.88;;
40449;SDS011;41787;53.570;10.032;2022-12-29T11:49:21;2.42;;;0.85;;
40449;SDS011;41787;53.570;10.032;2022-12-29T11:51:48;6.25;;;1.10;;
40449;SDS011;41787;53.570;10.032;2022-12-29T11:54:17;4.30;;;0.70;;
40449;SDS011;41787;53.570;10.032;2022-12-29T12:01:56;4.30;;;1.50;;
40449;SDS011;41787;53.570;10.032;2022-12-29T12:04:27;3.83;;;0.80;;
40449;SDS011;41787;53.570;10.032;2022-12-29T12:09:28;3.28;;;0.70;;
40449;SDS011;41787;53.570;10.032;2022-12-29T12:11:55;2.13;;;0.65;;
40449;SDS011;41787;53.570;10.032;2022-12-29T12:14:22;3.85;;;1.05;;
40449;SDS011;41787;53.570;10.032;2022-12-29T12:16:53;8.48;;;1.30;;
40449;SDS011;41787;53.570;10.032;2022-12-29T12:21:47;3.20;;;1.20;;
40449;SDS011;41787;53.570;10.032;2022-12-29T12:24:22;3.97;;;0.90;;
40449;SDS011;41787;53.570;10.032;2022-12-29T12:29:25;7.05;;;1.30;;
40449;SDS011;41787;53.570;10.032;2022-12-29T12:31:57;5.22;;;0.90;;
40449;SDS011;41787;53.570;10.032;2022-12-29T12:34:24;9.45;;;1.33;;
40449;SDS011;41787;53.570;10.032;2022-12-29T12:39:27;3.92;;;1.45;;
40449;SDS011;41787;53.570;10.032;2022-12-29T12:45:08;8.55;;;1.33;;
40449;SDS011;41787;53.570;10.032;2022-12-29T12:47:19;9.68;;;1.65;;
40449;SDS011;41787;53.570;10.032;2022-12-29T12:52:33;7.80;;;1.35;;
40449;SDS011;41787;53.570;10.032;2022-12-29T12:57:40;3.58;;;1.05;;
40449;SDS011;41787;53.570;10.032;2022-12-29T13:00:09;4.93;;;1.00;;
40449;SDS011;41787;53.570;10.032;2022-12-29T13:05:29;6.40;;;1.38;;
40449;SDS011;41787;53.570;10.032;2022-12-29T13:10:48;6.82;;;1.45;;
40449;SDS011;41787;53.570;10.032;2022-12-29T13:18:46;7.75;;;1.33;;
40449;SDS011;41787;53.570;10.032;2022-12-29T13:23:55;8.57;;;1.10;;
40449;SDS011;41787;53.570;10.032;2022-12-29T13:34:37;8.20;;;1.58;;
40449;SDS011;41787;53.570;10.032;2022-12-29T13:37:09;5.45;;;0.88;;
40449;SDS011;41787;53.570;10.032;2022-12-29T13:39:43;7.10;;;1.00;;
40449;SDS011;41787;53.570;10.032;2022-12-29T13:42:11;10.80;;;1.60;;
40449;SDS011;41787;53.570;10.032;2022-12-29T13:44:39;5.60;;;1.23;;
40449;SDS011;41787;53.570;10.032;2022-12-29T13:47:14;6.30;;;1.17;;
40449;SDS011;41787;53.570;10.032;2022-12-29T13:49:42;5.82;;;1.30;;
40449;SDS011;41787;53.570;10.032;2022-12-29T14:00:02;3.35;;;0.98;;
40449;SDS011;41787;53.570;10.032;2022-12-29T14:02:37;10.30;;;1.45;;
40449;SDS011;41787;53.570;10.032;2022-12-29T14:07:44;9.63;;;1.50;;
40449;SDS011;41787;53.570;10.032;2022-12-29T14:13:03;4.18;;;1.40;;
40449;SDS011;41787;53.570;10.032;2022-12-29T14:15:32;3.78;;;0.85;;
40449;SDS011;41787;53.570;10.032;2022-12-29T14:18:01;7.65;;;1.10;;
40449;SDS011;41787;53.570;10.032;2022-12-29T14:20:27;2.53;;;0.60;;
40449;SDS011;41787;53.570;10.032;2022-12-29T14:28:16;6.30;;;1.25;;
40449;SDS011;41787;53.570;10.032;2022-12-29T14:30:49;4.72;;;1.10;;
40449;SDS011;41787;53.570;10.032;2022-12-29T14:33:15;9.13;;;1.13;;
40449;SDS011;41787;53.570;10.032;2022-12-29T14:35:43;3.72;;;1.02;;
40449;SDS011;41787;53.570;10.032;2022-12-29T14:38:43;5.60;;;1.00;;
40449;SDS011;41787;53.570;10.032;2022-12-29T14:41:18;1.98;;;1.00;;
40449;SDS011;41787;53.570;10.032;2022-12-29T14:43:58;3.97;;;1.95;;
40449;SDS011;41787;53.570;10.032;2022-12-29T14:46:40;8.68;;;3.47;;
40449;SDS011;41787;53.570;10.032;2022-12-29T14:49:08;3.03;;;1.10;;
40449;SDS011;41787;53.570;10.032;2022-12-29T14:51:42;8.68;;;2.17;;
40449;SDS011;41787;53.570;10.032;2022-12-29T14:56:53;5.50;;;1.00;;
40449;SDS011;41787;53.570;10.032;2022-12-29T14:59:22;3.65;;;1.08;;
40449;SDS011;41787;53.570;10.032;2022-12-29T15:01:50;1.85;;;0.93;;
40449;SDS011;41787;53.570;10.032;2022-12-29T15:04:21;8.35;;;2.17;;
40449;SDS011;41787;53.570;10.032;2022-12-29T15:06:48;9.48;;;1.40;;
40449;SDS011;41787;53.570;10.032;2022-12-29T15:09:34;12.70;;;1.80;;
40449;SDS011;41787;53.570;10.032;2022-12-29T15:12:22;5.45;;;1.48;;
40449;SDS011;41787;53.570;10.032;2022-12-29T15:14:55;2.65;;;1.35;;
40449;SDS011;41787;53.570;10.032;2022-12-29T15:17:24;5.68;;;1.08;;
40449;SDS011;41787;53.570;10.032;2022-12-29T15:19:50;7.65;;;1.23;;
40449;SDS011;41787;53.570;10.032;2022-12-29T15:22:18;7.30;;;1.60;;
40449;SDS011;41787;53.570;10.032;2022-12-29T15:24:45;9.82;;;3.30;;
40449;SDS011;41787;53.570;10.032;2022-12-29T15:27:14;6.65;;;1.60;;
40449;SDS011;41787;53.570;10.032;2022-12-29T15:29:42;4.28;;;1.40;;
40449;SDS011;41787;53.570;10.032;2022-12-29T15:34:40;3.80;;;1.30;;
40449;SDS011;41787;53.570;10.032;2022-12-29T15:37:07;7.70;;;1.60;;
40449;SDS011;41787;53.570;10.032;2022-12-29T15:39:33;4.30;;;1.42;;
40449;SDS011;41787;53.570;10.032;2022-12-29T15:42:15;6.70;;;1.88;;
40449;SDS011;41787;53.570;10.032;2022-12-29T15:44:43;9.13;;;1.75;;
40449;SDS011;41787;53.570;10.032;2022-12-29T15:47:14;8.18;;;1.92;;
40449;SDS011;41787;53.570;10.032;2022-12-29T15:49:47;8.88;;;2.45;;
40449;SDS011;41787;53.570;10.032;2022-12-29T15:52:16;5.03;;;1.70;;
40449;SDS011;41787;53.570;10.032;2022-12-29T15:54:43;5.63;;;1.58;;
40449;SDS011;41787;53.570;10.032;2022-12-29T15:57:16;5.85;;;1.85;;
40449;SDS011;41787;53.570;10.032;2022-12-29T15:59:46;9.45;;;3.97;;
40449;SDS011;41787;53.570;10.032;2022-12-29T16:02:13;7.05;;;2.17;;
40449;SDS011;41787;53.570;10.032;2022-12-29T16:04:39;11.93;;;2.38;;
40449;SDS011;41787;53.570;10.032;2022-12-29T16:07:06;5.70;;;1.70;;
40449;SDS011;41787;53.570;10.032;2022-12-29T16:09:46;6.50;;;1.98;;
40449;SDS011;41787;53.570;10.032;2022-12-29T16:12:16;12.48;;;2.17;;
40449;SDS011;41787;53.570;10.032;2022-12-29T16:14:44;9.80;;;2.47;;
40449;SDS011;41787;53.570;10.032;2022-12-29T16:17:12;13.32;;;2.22;;
40449;SDS011;41787;53.570;10.032;2022-12-29T16:19:39;7.47;;;2.08;;
40449;SDS011;41787;53.570;10.032;2022-12-29T16:22:14;9.20;;;2.17;;
40449;SDS011;41787;53.570;10.032;2022-12-29T16:24:43;8.55;;;2.00;;
40449;SDS011;41787;53.570;10.032;2022-12-29T16:29:35;10.55;;;2.35;;
40449;SDS011;41787;53.570;10.032;2022-12-29T16:32:01;8.63;;;1.85;;
40449;SDS011;41787;53.570;10.032;2022-12-29T16:37:03;9.30;;;2.20;;
40449;SDS011;41787;53.570;10.032;2022-12-29T16:39:31;12.65;;;2.38;;
40449;SDS011;41787;53.570;10.032;2022-12-29T16:41:58;17.33;;;2.70;;
40449;SDS011;41787;53.570;10.032;2022-12-29T16:49:35;11.07;;;2.58;;
40449;SDS011;41787;53.570;10.032;2022-12-29T16:52:12;10.57;;;2.40;;
40449;SDS011;41787;53.570;10.032;2022-12-29T16:54:38;14.18;;;2.65;;
40449;SDS011;41787;53.570;10.032;2022-12-29T16:57:05;8.18;;;2.80;;
40449;SDS011;41787;53.570;10.032;2022-12-29T16:59:33;13.20;;;3.38;;
40449;SDS011;41787;53.570;10.032;2022-12-29T17:02:01;15.18;;;3.28;;
40449;SDS011;41787;53.570;10.032;2022-12-29T17:04:30;14.52;;;3.95;;